Capitol Logistics 1873

Operating for CJT



CYEG
Edmonton International Airport
Edmonton, CA
CYWG
Winnipeg / James Armstrong Richardson International Airport
Winnipeg, CA

Activity Log

Date Flight Route Aircraft Duration
11/23/2021 CPX1873 RYLEY WAINN Q971 YXE J515 VLR AMBIL2 B763 1h 46m
11/06/2021 CPX1873 Jevon1 RYLEY YXE J515 VLR AMBIL2 B752 1h 43m
10/09/2021 CPX1873 RYLEY YXE J515 VLR AMBIL2 B752 1h 47m

Route Details

Aircraft Information
Group: North America Fleet
Types: B738,B752,B762,B763
Route Data
Demand: V
Distance: 642nm
Duration: 1h 24m
Recm'd Route: RYLEY YXE J515 VLR AMBIL2
Origin Wx: CYEG 270600Z 10008KT 20SM BKN130 15/03 A2976 RMK AC7 SLP084 DENSITY ALT 3200FT
Dest. Wx: CYWG 270600Z 14005KT 15SM SKC 12/10 A2977 RMK SLP088 DENSITY ALT 800FT
Notes:

Financial History
Total Freight: 139,141lbs
Average Load: 46,380lbs/flt
Fuel Used: 40,219lbs
Avg. Fuel Used: 13,406lbs/flt
Fuel Expense: $11,445
Avg. Fuel Expense: $3,815
Avg. Fuel Cost: $0.29/lbs
Total Gross Income: $345,070
Pilot Pay: $507
Total Expenses: $42,770
Total Revenue: $290,117
Average Revenue: $115,023.23